createdAt,value
2022-12-18T00:01:35.448Z,22.52
2022-12-18T00:04:06.541Z,23.20
2022-12-18T00:06:35.767Z,20.67
2022-12-18T00:09:04.631Z,22.98
2022-12-18T00:11:32.525Z,20.15
2022-12-18T00:14:01.141Z,19.70
2022-12-18T00:16:31.121Z,19.90
2022-12-18T00:19:01.335Z,19.85
2022-12-18T00:21:32.035Z,20.38
2022-12-18T00:24:00.917Z,21.02
2022-12-18T00:26:32.541Z,18.85
2022-12-18T00:29:10.937Z,19.85
2022-12-18T00:31:39.147Z,19.05
2022-12-18T00:34:07.505Z,19.30
2022-12-18T00:36:36.272Z,18.35
2022-12-18T00:39:05.835Z,18.50
2022-12-18T00:41:52.563Z,18.30
2022-12-18T00:44:20.454Z,18.65
2022-12-18T00:46:49.224Z,17.67
2022-12-18T00:49:20.021Z,16.00
2022-12-18T00:51:48.954Z,15.40
2022-12-18T00:54:17.355Z,14.27
2022-12-18T00:56:49.295Z,14.57
2022-12-18T01:01:47.581Z,15.05
2022-12-18T01:04:15.790Z,15.52
2022-12-18T01:06:46.011Z,15.88
2022-12-18T01:09:13.146Z,17.42
2022-12-18T01:11:40.790Z,16.63
2022-12-18T01:14:08.137Z,15.65
2022-12-18T01:16:36.844Z,16.17
2022-12-18T01:19:05.436Z,16.75
2022-12-18T01:21:32.740Z,16.67
2022-12-18T01:24:04.973Z,17.40
2022-12-18T01:26:32.092Z,17.48
2022-12-18T01:28:59.669Z,15.40
2022-12-18T01:31:30.859Z,16.52
2022-12-18T01:33:59.112Z,14.75
2022-12-18T01:36:36.026Z,14.75
2022-12-18T01:39:07.526Z,14.65
2022-12-18T01:41:54.778Z,14.97
2022-12-18T01:45:14.371Z,15.35
2022-12-18T01:48:01.592Z,14.55
2022-12-18T01:50:41.056Z,13.52
2022-12-18T01:53:19.956Z,14.93
2022-12-18T01:55:56.064Z,14.93
2022-12-18T01:58:38.120Z,15.07
2022-12-18T02:01:05.637Z,15.48
2022-12-18T02:03:33.424Z,15.45
2022-12-18T02:06:28.772Z,15.02
2022-12-18T02:09:13.850Z,14.80
2022-12-18T02:12:00.710Z,14.82
2022-12-18T02:14:56.036Z,14.25
2022-12-18T02:17:44.215Z,13.48
2022-12-18T02:20:28.661Z,14.35
2022-12-18T02:23:48.018Z,14.75
2022-12-18T02:26:39.014Z,13.20
2022-12-18T02:29:17.577Z,12.32
2022-12-18T02:31:56.864Z,12.73
2022-12-18T02:34:31.016Z,14.15
2022-12-18T02:37:03.356Z,12.93
2022-12-18T02:39:33.890Z,14.60
2022-12-18T02:42:08.912Z,12.88
2022-12-18T02:44:45.422Z,11.70
2022-12-18T02:47:17.503Z,12.75
2022-12-18T02:49:50.734Z,12.70
2022-12-18T02:52:38.863Z,13.10
2022-12-18T02:55:20.598Z,13.30
2022-12-18T02:58:00.499Z,11.50
2022-12-18T03:00:58.914Z,12.40
2022-12-18T03:03:43.188Z,11.45
2022-12-18T03:06:24.840Z,11.25
2022-12-18T03:09:00.730Z,12.00
2022-12-18T03:11:53.831Z,12.13
2022-12-18T03:14:24.434Z,11.63
2022-12-18T03:16:57.367Z,11.98
2022-12-18T03:19:30.537Z,9.88
2022-12-18T03:22:04.530Z,11.68
2022-12-18T03:24:41.708Z,12.63
2022-12-18T03:27:19.889Z,11.07
2022-12-18T03:29:58.802Z,9.88
2022-12-18T03:32:34.528Z,10.32
2022-12-18T03:35:06.687Z,10.40
2022-12-18T03:37:37.662Z,10.23
2022-12-18T03:40:07.217Z,10.25
2022-12-18T03:42:56.329Z,10.52
2022-12-18T03:45:42.811Z,10.50
2022-12-18T03:48:18.831Z,8.93
2022-12-18T03:51:01.998Z,10.07
2022-12-18T03:56:17.259Z,9.77
2022-12-18T03:58:48.143Z,9.85
2022-12-18T04:01:32.427Z,9.55
2022-12-18T04:04:03.491Z,9.45
2022-12-18T04:06:38.616Z,10.10
2022-12-18T04:09:06.765Z,8.70
2022-12-18T04:11:38.220Z,8.23
2022-12-18T04:14:07.480Z,7.82
2022-12-18T04:16:35.206Z,7.82
2022-12-18T04:19:05.469Z,8.88
2022-12-18T04:21:38.816Z,10.80
2022-12-18T04:24:06.918Z,8.63
2022-12-18T04:40:14.325Z,7.82
2022-12-18T04:42:45.077Z,9.00
2022-12-18T04:51:00.936Z,9.73
2022-12-18T04:56:11.387Z,7.72
2022-12-18T04:58:41.486Z,7.32
2022-12-18T05:01:10.113Z,8.68
2022-12-18T05:03:38.621Z,8.05
2022-12-18T05:06:07.583Z,8.55
2022-12-18T05:08:35.102Z,7.85
2022-12-18T05:11:09.293Z,9.32
2022-12-18T05:13:39.261Z,7.90
2022-12-18T05:16:07.570Z,7.60
2022-12-18T05:18:35.439Z,8.20
2022-12-18T05:21:03.573Z,6.97
2022-12-18T05:23:34.025Z,7.88
2022-12-18T05:26:04.764Z,7.53
2022-12-18T05:28:35.831Z,6.50
2022-12-18T05:31:05.151Z,6.80
2022-12-18T05:33:36.002Z,7.05
2022-12-18T05:36:07.012Z,8.07
2022-12-18T05:38:37.721Z,6.72
2022-12-18T05:41:07.180Z,7.40
2022-12-18T05:43:37.626Z,7.18
2022-12-18T05:46:16.360Z,7.15
2022-12-18T05:48:45.558Z,7.75
2022-12-18T05:51:16.289Z,6.65
2022-12-18T05:53:44.411Z,7.28
2022-12-18T05:56:16.239Z,7.43
2022-12-18T05:58:44.535Z,6.72
2022-12-18T06:01:17.950Z,6.72
2022-12-18T06:03:45.871Z,6.82
2022-12-18T06:06:27.129Z,6.95
2022-12-18T06:08:55.429Z,6.97
2022-12-18T06:11:26.368Z,6.97
2022-12-18T06:13:59.568Z,7.32
2022-12-18T06:16:29.473Z,7.57
2022-12-18T06:19:02.068Z,7.90
2022-12-18T06:21:31.280Z,7.00
2022-12-18T06:24:53.338Z,8.57
2022-12-18T06:28:03.663Z,7.68
2022-12-18T06:31:09.396Z,6.75
2022-12-18T06:33:41.594Z,7.35
2022-12-18T06:36:14.158Z,7.20
2022-12-18T06:38:44.541Z,7.72
2022-12-18T06:41:18.198Z,6.97
2022-12-18T06:44:04.674Z,8.68
2022-12-18T06:46:48.658Z,8.40
2022-12-18T06:49:19.511Z,9.90
2022-12-18T06:51:57.345Z,9.37
2022-12-18T06:54:24.550Z,8.38
2022-12-18T06:56:52.165Z,8.05
2022-12-18T06:59:19.889Z,8.05
2022-12-18T07:01:47.219Z,8.02
2022-12-18T07:04:14.666Z,7.28
2022-12-18T07:06:41.730Z,8.57
2022-12-18T07:09:08.824Z,8.45
2022-12-18T07:11:36.087Z,9.95
2022-12-18T07:14:03.590Z,7.72
2022-12-18T07:16:30.702Z,8.50
2022-12-18T07:18:57.928Z,8.93
2022-12-18T07:21:26.248Z,9.32
2022-12-18T07:23:53.342Z,9.65
2022-12-18T07:26:22.672Z,10.15
2022-12-18T07:28:50.524Z,10.15
2022-12-18T07:31:22.904Z,9.77
2022-12-18T07:33:51.800Z,9.48
2022-12-18T07:36:19.937Z,8.23
2022-12-18T07:38:53.000Z,9.43
2022-12-18T07:41:20.833Z,10.40
2022-12-18T07:43:49.322Z,9.13
2022-12-18T07:46:17.785Z,9.00
2022-12-18T07:48:49.352Z,8.20
2022-12-18T07:51:19.405Z,9.43
2022-12-18T07:53:46.883Z,8.85
2022-12-18T07:56:29.636Z,11.20
2022-12-18T07:58:59.163Z,8.75
2022-12-18T08:01:27.453Z,9.98
2022-12-18T08:03:54.773Z,9.82
2022-12-18T08:06:22.751Z,9.80
2022-12-18T08:08:53.823Z,9.43
2022-12-18T08:11:21.056Z,11.40
2022-12-18T08:13:48.772Z,10.43
2022-12-18T08:16:17.247Z,11.70
2022-12-18T08:18:44.367Z,16.10
2022-12-18T08:21:15.911Z,12.02
2022-12-18T08:23:44.056Z,14.82
2022-12-18T08:26:13.181Z,11.80
2022-12-18T08:28:41.331Z,12.93
2022-12-18T08:31:20.089Z,13.13
2022-12-18T08:33:56.020Z,14.38
2022-12-18T08:36:25.809Z,12.88
2022-12-18T08:38:54.848Z,13.48
2022-12-18T08:41:22.541Z,12.40
2022-12-18T08:44:09.151Z,12.77
2022-12-18T08:46:40.422Z,13.95
2022-12-18T08:49:10.234Z,14.90
2022-12-18T08:51:37.928Z,14.90
2022-12-18T08:54:06.728Z,14.57
2022-12-18T08:56:37.865Z,14.20
2022-12-18T08:59:05.737Z,13.63
2022-12-18T09:01:33.347Z,13.70
2022-12-18T09:04:03.084Z,13.25
2022-12-18T09:06:30.696Z,14.85
2022-12-18T09:08:58.747Z,14.45
2022-12-18T09:11:29.067Z,14.68
2022-12-18T09:13:58.615Z,14.95
2022-12-18T09:16:32.201Z,16.83
2022-12-18T09:19:03.841Z,18.35
2022-12-18T09:21:35.859Z,15.32
2022-12-18T09:24:52.243Z,15.75
2022-12-18T09:27:33.083Z,14.32
2022-12-18T09:30:00.478Z,16.33
2022-12-18T09:32:27.859Z,16.05
2022-12-18T09:34:55.282Z,16.90
2022-12-18T09:37:22.333Z,17.30
2022-12-18T09:39:49.966Z,16.85
2022-12-18T09:42:23.932Z,18.27
2022-12-18T09:44:54.905Z,16.27
2022-12-18T09:47:25.193Z,17.48
2022-12-18T09:49:59.530Z,17.65
2022-12-18T09:52:40.933Z,15.60
2022-12-18T09:55:37.552Z,16.55
2022-12-18T09:58:10.919Z,16.40
2022-12-18T10:00:38.156Z,17.60
2022-12-18T10:03:13.523Z,18.63
2022-12-18T10:06:12.318Z,17.52
2022-12-18T10:09:42.538Z,17.42
2022-12-18T10:13:04.706Z,18.60
2022-12-18T10:16:25.121Z,18.98
2022-12-18T10:22:15.615Z,17.63
2022-12-18T10:25:17.279Z,16.98
2022-12-18T10:27:44.987Z,16.40
2022-12-18T10:30:19.671Z,17.80
2022-12-18T10:32:46.862Z,16.95
2022-12-18T10:35:30.502Z,15.25
2022-12-18T10:38:17.306Z,17.33
2022-12-18T10:41:05.685Z,16.10
2022-12-18T10:43:35.967Z,15.30
2022-12-18T10:46:15.378Z,16.08
2022-12-18T10:48:59.203Z,16.58
2022-12-18T10:51:42.485Z,15.52
2022-12-18T10:54:30.207Z,15.90
2022-12-18T10:57:38.798Z,14.70
2022-12-18T11:00:25.197Z,15.35
2022-12-18T11:02:53.454Z,14.18
2022-12-18T11:05:35.195Z,14.77
2022-12-18T11:08:03.855Z,16.13
2022-12-18T11:10:38.722Z,14.55
2022-12-18T11:13:31.398Z,14.18
2022-12-18T11:15:59.659Z,14.02
2022-12-18T11:18:37.245Z,15.43
2022-12-18T11:21:14.399Z,14.55
2022-12-18T11:23:53.410Z,15.43
2022-12-18T11:26:22.775Z,17.05
2022-12-18T11:29:10.657Z,16.27
2022-12-18T11:31:38.685Z,15.93
2022-12-18T11:34:32.658Z,14.57
2022-12-18T11:37:06.713Z,12.93
2022-12-18T11:40:02.132Z,15.13
2022-12-18T11:42:59.524Z,15.80
2022-12-18T11:45:42.511Z,15.57
2022-12-18T11:48:42.452Z,14.95
2022-12-18T11:51:27.216Z,15.65
2022-12-18T11:53:54.790Z,16.10
2022-12-18T11:56:43.593Z,15.15
2022-12-18T11:59:42.163Z,16.65
2022-12-18T12:02:36.471Z,14.13
2022-12-18T12:05:29.937Z,15.15
2022-12-18T12:08:30.391Z,13.98
2022-12-18T12:11:18.792Z,14.30
2022-12-18T12:14:19.818Z,14.65
2022-12-18T12:17:02.221Z,14.80
2022-12-18T12:20:07.507Z,13.77
2022-12-18T12:22:58.985Z,14.90
2022-12-18T12:26:12.339Z,15.27
2022-12-18T12:29:03.849Z,13.10
2022-12-18T12:31:59.095Z,15.48
2022-12-18T12:34:40.773Z,15.70
2022-12-18T12:37:30.251Z,14.82
2022-12-18T12:39:58.960Z,13.43
2022-12-18T12:42:55.291Z,15.43
2022-12-18T12:45:38.789Z,15.15
2022-12-18T12:48:17.945Z,14.05
2022-12-18T12:50:49.034Z,15.18
2022-12-18T12:53:32.686Z,14.35
2022-12-18T12:56:00.634Z,13.50
2022-12-18T12:58:58.507Z,15.63
2022-12-18T13:02:07.506Z,14.02
2022-12-18T13:05:20.734Z,14.50
2022-12-18T13:08:07.079Z,15.63
2022-12-18T13:13:54.514Z,13.93
2022-12-18T13:16:25.940Z,14.13
2022-12-18T13:22:32.664Z,15.50
2022-12-18T13:25:00.962Z,14.68
2022-12-18T13:28:01.713Z,13.98
2022-12-18T13:30:35.043Z,14.70
2022-12-18T13:33:17.649Z,15.50
2022-12-18T13:38:36.760Z,13.32
2022-12-18T13:41:29.406Z,15.75
2022-12-18T13:44:21.833Z,15.52
2022-12-18T13:46:53.553Z,13.87
2022-12-18T13:49:38.336Z,12.37
2022-12-18T13:52:23.127Z,13.90
2022-12-18T13:55:03.260Z,14.20
2022-12-18T13:57:39.766Z,14.57
2022-12-18T14:00:32.763Z,14.07
2022-12-18T14:03:02.733Z,16.08
2022-12-18T14:05:39.491Z,15.95
2022-12-18T14:08:17.897Z,13.73
2022-12-18T14:10:50.397Z,14.48
2022-12-18T14:13:43.336Z,14.50
2022-12-18T14:16:16.762Z,13.35
2022-12-18T14:19:01.929Z,15.23
2022-12-18T14:21:36.367Z,14.57
2022-12-18T14:24:25.176Z,15.52
2022-12-18T14:26:53.437Z,14.15
2022-12-18T14:29:32.054Z,13.10
2022-12-18T14:32:18.903Z,13.68
2022-12-18T14:34:55.291Z,12.40
2022-12-18T14:37:27.310Z,14.77
2022-12-18T14:42:40.150Z,12.02
2022-12-18T14:45:55.991Z,13.18
2022-12-18T14:48:37.982Z,13.52
2022-12-18T14:51:17.879Z,13.40
2022-12-18T14:54:05.198Z,12.38
2022-12-18T14:56:43.637Z,13.38
2022-12-18T14:59:25.175Z,13.50
2022-12-18T15:01:53.350Z,13.93
2022-12-18T15:04:36.351Z,11.32
2022-12-18T15:07:18.011Z,13.85
2022-12-18T15:10:18.916Z,13.25
2022-12-18T15:13:02.573Z,14.38
2022-12-18T15:16:29.624Z,13.55
2022-12-18T15:18:59.825Z,12.38
2022-12-18T15:22:32.601Z,14.88
2022-12-18T15:25:34.915Z,13.40
2022-12-18T15:28:02.654Z,14.25
2022-12-18T15:30:30.033Z,14.57
2022-12-18T15:45:45.208Z,15.10
2022-12-18T15:48:28.516Z,14.65
2022-12-18T15:50:59.355Z,13.43
2022-12-18T15:53:34.066Z,18.73
2022-12-18T15:56:19.788Z,14.38
2022-12-18T15:59:03.222Z,14.80
2022-12-18T16:02:18.287Z,15.85
2022-12-18T16:04:55.046Z,16.50
2022-12-18T16:07:25.022Z,14.45
2022-12-18T16:09:53.668Z,15.18
2022-12-18T16:12:25.499Z,12.02
2022-12-18T16:14:53.174Z,9.98
2022-12-18T16:17:21.468Z,12.48
2022-12-18T16:19:51.748Z,13.80
2022-12-18T16:22:23.373Z,15.05
2022-12-18T16:24:54.805Z,16.55
2022-12-18T16:27:23.522Z,17.33
2022-12-18T16:29:51.365Z,15.27
2022-12-18T16:32:23.417Z,15.93
2022-12-18T16:34:51.415Z,15.75
2022-12-18T16:37:22.549Z,13.85
2022-12-18T16:39:49.937Z,15.25
2022-12-18T16:42:21.217Z,16.17
2022-12-18T16:44:52.592Z,16.83
2022-12-18T16:47:20.174Z,20.20
2022-12-18T16:49:53.003Z,14.77
2022-12-18T16:52:21.173Z,16.70
2022-12-18T16:54:49.084Z,15.52
2022-12-18T16:57:21.569Z,13.85
2022-12-18T16:59:53.114Z,16.48
2022-12-18T17:02:27.374Z,15.85
2022-12-18T17:04:59.260Z,15.57
2022-12-18T17:07:31.534Z,17.08
2022-12-18T17:09:58.583Z,13.73
2022-12-18T17:12:26.787Z,16.20
2022-12-18T17:14:54.312Z,17.20
2022-12-18T17:17:22.994Z,16.25
2022-12-18T17:19:52.444Z,16.75
2022-12-18T17:22:23.157Z,16.67
2022-12-18T17:24:50.341Z,14.85
2022-12-18T17:27:17.431Z,16.80
2022-12-18T17:29:48.458Z,17.50
2022-12-18T17:32:17.850Z,15.50
2022-12-18T17:34:50.231Z,15.80
2022-12-18T17:37:20.495Z,15.68
2022-12-18T17:39:47.554Z,16.25
2022-12-18T17:42:15.953Z,16.58
2022-12-18T17:44:44.801Z,16.75
2022-12-18T17:47:13.785Z,15.68
2022-12-18T17:49:41.174Z,16.42
2022-12-18T17:52:08.549Z,16.20
2022-12-18T17:54:39.366Z,17.77
2022-12-18T17:57:06.505Z,17.63
2022-12-18T17:59:33.687Z,18.55
2022-12-18T18:02:01.101Z,15.57
2022-12-18T18:04:28.343Z,16.13
2022-12-18T18:06:55.484Z,16.45
2022-12-18T18:09:22.742Z,16.00
2022-12-18T18:12:08.579Z,15.98
2022-12-18T18:14:35.957Z,15.82
2022-12-18T18:17:04.990Z,16.48
2022-12-18T18:19:33.562Z,15.45
2022-12-18T18:22:01.612Z,16.92
2022-12-18T18:24:30.588Z,15.95
2022-12-18T18:26:59.620Z,15.13
2022-12-18T18:32:11.529Z,16.27
2022-12-18T18:34:38.493Z,15.68
2022-12-18T18:37:06.096Z,15.10
2022-12-18T18:39:33.395Z,13.95
2022-12-18T18:44:51.329Z,13.93
2022-12-18T18:47:18.726Z,12.30
2022-12-18T18:49:46.173Z,14.13
2022-12-18T18:52:13.831Z,14.70
2022-12-18T18:54:57.163Z,13.75
2022-12-18T18:57:30.524Z,13.95
2022-12-18T18:59:57.895Z,14.00
2022-12-18T19:02:25.269Z,12.60
2022-12-18T19:04:52.926Z,11.15
2022-12-18T19:07:29.909Z,11.77
2022-12-18T19:10:04.218Z,10.43
2022-12-18T19:12:51.789Z,13.63
2022-12-18T19:15:19.488Z,10.02
2022-12-18T19:17:47.550Z,12.10
2022-12-18T19:20:16.698Z,14.57
2022-12-18T19:22:48.988Z,11.65
2022-12-18T19:25:35.738Z,11.27
2022-12-18T19:28:07.269Z,12.00
2022-12-18T19:30:40.526Z,12.00
2022-12-18T19:33:34.042Z,11.85
2022-12-18T19:35:54.938Z,14.57
2022-12-18T19:38:22.332Z,16.40
2022-12-18T19:41:04.042Z,11.65
2022-12-18T19:43:32.448Z,11.85
2022-12-18T19:45:59.753Z,13.57
2022-12-18T19:48:26.928Z,11.15
2022-12-18T19:50:54.349Z,13.70
2022-12-18T19:53:21.651Z,13.80
2022-12-18T19:55:48.772Z,10.80
2022-12-18T19:58:17.185Z,12.82
2022-12-18T20:00:45.736Z,10.38
2022-12-18T20:03:23.263Z,12.52
2022-12-18T20:05:52.496Z,13.35
2022-12-18T20:08:19.666Z,16.17
2022-12-18T20:10:48.973Z,13.02
2022-12-18T20:13:17.176Z,13.70
2022-12-18T20:15:45.460Z,12.05
2022-12-18T20:18:12.953Z,13.13
2022-12-18T20:20:40.118Z,11.95
2022-12-18T20:23:07.389Z,9.75
2022-12-18T20:25:34.559Z,13.70
2022-12-18T20:28:01.776Z,14.13
2022-12-18T20:30:28.990Z,15.50
2022-12-18T20:32:56.253Z,11.00
2022-12-18T20:35:23.688Z,10.57
2022-12-18T20:37:51.832Z,14.82
2022-12-18T20:40:20.126Z,13.05
2022-12-18T20:42:47.630Z,10.27
2022-12-18T20:45:14.936Z,14.32
2022-12-18T20:47:42.683Z,16.00
2022-12-18T20:50:10.180Z,11.73
2022-12-18T20:52:37.519Z,13.68
2022-12-18T20:55:06.987Z,13.90
2022-12-18T20:57:34.236Z,13.65
2022-12-18T21:00:02.984Z,12.05
2022-12-18T21:02:30.216Z,9.30
2022-12-18T21:04:57.827Z,12.75
2022-12-18T21:07:25.680Z,15.18
2022-12-18T21:09:52.898Z,13.30
2022-12-18T21:12:40.494Z,11.13
2022-12-18T21:15:11.517Z,10.07
2022-12-18T21:17:44.122Z,12.40
2022-12-18T21:20:18.019Z,11.73
2022-12-18T21:22:50.309Z,11.43
2022-12-18T21:25:17.612Z,12.77
2022-12-18T21:27:44.701Z,12.77
2022-12-18T21:30:13.618Z,11.90
2022-12-18T21:32:41.112Z,8.38
2022-12-18T21:35:08.854Z,10.35
2022-12-18T21:37:36.048Z,10.63
2022-12-18T21:40:04.824Z,13.85
2022-12-18T21:42:56.517Z,12.35
2022-12-18T21:45:23.611Z,15.77
2022-12-18T21:47:50.681Z,13.85
2022-12-18T21:50:17.843Z,14.20
2022-12-18T21:52:44.862Z,17.98
2022-12-18T21:55:11.924Z,13.43
2022-12-18T21:57:39.600Z,16.00
2022-12-18T22:00:18.430Z,6.07
2022-12-18T22:03:12.423Z,13.93
2022-12-18T22:05:49.386Z,12.15
2022-12-18T22:08:19.667Z,14.20
2022-12-18T22:10:47.100Z,18.52
2022-12-18T22:13:14.255Z,16.95
2022-12-18T22:15:41.385Z,15.68
2022-12-18T22:18:08.624Z,14.00
2022-12-18T22:20:35.896Z,14.30
2022-12-18T22:23:05.752Z,15.10
2022-12-18T22:25:39.758Z,18.23
2022-12-18T22:28:25.699Z,17.10
2022-12-18T22:30:55.998Z,14.02
2022-12-18T22:33:27.139Z,19.45
2022-12-18T22:35:54.502Z,15.57
2022-12-18T22:38:21.899Z,11.50
2022-12-18T22:40:48.991Z,17.50
2022-12-18T22:43:16.101Z,15.13
2022-12-18T22:45:47.314Z,12.93
2022-12-18T22:48:14.664Z,14.77
2022-12-18T22:50:43.680Z,14.23
2022-12-18T22:53:10.851Z,11.65
2022-12-18T22:55:38.462Z,14.10
2022-12-18T22:58:05.657Z,18.20
2022-12-18T23:00:32.798Z,14.05
2022-12-18T23:03:01.154Z,16.35
2022-12-18T23:05:32.700Z,15.55
2022-12-18T23:07:59.950Z,12.43
2022-12-18T23:10:28.171Z,15.40
2022-12-18T23:12:55.461Z,19.70
2022-12-18T23:15:47.812Z,18.48
2022-12-18T23:18:15.478Z,17.63
2022-12-18T23:20:42.846Z,17.17
2022-12-18T23:23:10.079Z,16.92
2022-12-18T23:25:37.324Z,18.80
2022-12-18T23:28:04.821Z,14.55
2022-12-18T23:30:32.877Z,18.58
2022-12-18T23:33:00.024Z,15.70
2022-12-18T23:35:27.312Z,11.23
2022-12-18T23:37:58.791Z,17.65
2022-12-18T23:42:54.101Z,16.88
2022-12-18T23:45:21.209Z,19.67
2022-12-18T23:47:51.226Z,21.17
2022-12-18T23:50:18.572Z,18.75
2022-12-18T23:52:45.803Z,16.65
2022-12-18T23:55:12.946Z,14.60
2022-12-18T23:57:40.012Z,18.17
